Time;durP1;ratioP1;P1;durP2;ratioP2;P2;SDS_P1;SDS_P2;PMS_P1;PMS_P2;Temp;Humidity;BMP_temperature;BMP_pressure;BME280_temperature;BME280_humidity;BME280_pressure;Samples;Min_cycle;Max_cycle;Signal;HPM_P1;HPM_P2
2021/08/14 00:00:46;;;;;;;9.10;4.32;;;;;;;;;;2072973;28;20541;-51
2021/08/14 00:01:46;;;;;;;13.00;4.78;;;;;;;;;;2072076;28;20216;-58
2021/08/14 00:02:47;;;;;;;7.55;4.38;;;;;;;;;;2072370;28;20212;-57
2021/08/14 00:03:47;;;;;;;10.68;4.78;;;;;;;;;;2072090;28;20247;-54
2021/08/14 00:04:47;;;;;;;8.95;4.75;;;;;;;;;;2071780;28;20259;-53
2021/08/14 00:05:48;;;;;;;9.50;4.65;;;;;;;;;;2072010;28;20201;-54
2021/08/14 00:06:48;;;;;;;6.90;4.43;;;;;;;;;;2067182;28;20532;-53
2021/08/14 00:07:48;;;;;;;10.07;4.53;;;;;;;;;;2071784;28;20669;-52
2021/08/14 00:08:48;;;;;;;9.30;4.82;;;;;;;;;;2071099;28;20312;-52
2021/08/14 00:09:49;;;;;;;6.95;5.10;;;;;;;;;;2072948;28;20260;-55
2021/08/14 00:10:49;;;;;;;11.10;4.63;;;;;;;;;;2072001;28;20688;-55
2021/08/14 00:11:50;;;;;;;10.50;4.93;;;;;;;;;;2072355;28;20288;-55
2021/08/14 00:12:50;;;;;;;9.43;4.43;;;;;;;;;;2072800;28;20256;-54
2021/08/14 00:13:50;;;;;;;10.07;4.65;;;;;;;;;;2072921;28;20657;-54
2021/08/14 00:14:50;;;;;;;7.22;4.28;;;;;;;;;;2072964;28;20178;-52
2021/08/14 00:15:51;;;;;;;9.50;4.05;;;;;;;;;;2071467;28;20847;-52
2021/08/14 00:16:51;;;;;;;9.02;4.75;;;;;;;;;;2067021;28;20195;-53
2021/08/14 00:17:51;;;;;;;8.45;4.95;;;;;;;;;;2072068;28;20196;-54
2021/08/14 00:18:51;;;;;;;7.65;4.75;;;;;;;;;;2071409;28;20586;-53
2021/08/14 00:19:52;;;;;;;10.40;4.70;;;;;;;;;;2071376;28;20622;-55
2021/08/14 00:20:52;;;;;;;9.57;4.60;;;;;;;;;;2072215;28;20204;-58
2021/08/14 00:21:52;;;;;;;10.50;4.75;;;;;;;;;;2070310;28;20177;-56
2021/08/14 00:22:53;;;;;;;9.18;4.57;;;;;;;;;;2067837;28;20173;-54
2021/08/14 00:23:53;;;;;;;7.25;4.25;;;;;;;;;;2073018;28;20203;-51
2021/08/14 00:24:53;;;;;;;8.63;4.57;;;;;;;;;;2072835;28;20734;-53
2021/08/14 00:25:55;;;;;;;6.80;4.63;;;;;;;;;;2073005;28;20197;-53
2021/08/14 00:26:55;;;;;;;15.40;4.70;;;;;;;;;;2072744;28;20231;-54
2021/08/14 00:27:55;;;;;;;6.63;4.28;;;;;;;;;;2071353;28;20402;-55
2021/08/14 00:28:56;;;;;;;7.32;4.20;;;;;;;;;;2072229;28;20161;-51
2021/08/14 00:29:56;;;;;;;6.22;4.43;;;;;;;;;;2072324;28;20184;-52
2021/08/14 00:30:57;;;;;;;9.10;4.70;;;;;;;;;;2072806;28;20244;-55
2021/08/14 00:31:57;;;;;;;7.50;4.53;;;;;;;;;;2073069;28;20188;-51
2021/08/14 00:32:57;;;;;;;9.05;4.82;;;;;;;;;;2073758;28;20194;-54
2021/08/14 00:33:57;;;;;;;9.57;5.20;;;;;;;;;;2071186;28;20248;-56
2021/08/14 00:34:58;;;;;;;9.85;5.22;;;;;;;;;;2069887;28;20244;-50
2021/08/14 00:35:58;;;;;;;5.97;4.47;;;;;;;;;;2074245;28;20207;-50
2021/08/14 00:36:58;;;;;;;9.52;5.10;;;;;;;;;;2073852;28;20753;-51
2021/08/14 00:37:58;;;;;;;9.15;4.90;;;;;;;;;;2073155;28;20177;-57
2021/08/14 00:38:59;;;;;;;8.95;4.63;;;;;;;;;;2073759;28;20189;-52
2021/08/14 00:39:59;;;;;;;7.57;5.00;;;;;;;;;;2074321;28;20184;-52
2021/08/14 00:41:00;;;;;;;10.80;4.80;;;;;;;;;;2073781;28;20559;-52
2021/08/14 00:42:00;;;;;;;5.97;4.35;;;;;;;;;;2073426;28;20169;-55
2021/08/14 00:43:01;;;;;;;8.40;4.53;;;;;;;;;;2074280;28;20610;-56
2021/08/14 00:44:03;;;;;;;9.30;4.80;;;;;;;;;;2073754;28;20192;-57
2021/08/14 00:45:03;;;;;;;7.60;4.30;;;;;;;;;;2073742;28;20228;-56
2021/08/14 00:46:04;;;;;;;10.30;4.68;;;;;;;;;;2073610;28;20579;-58
2021/08/14 00:47:04;;;;;;;11.27;5.15;;;;;;;;;;2073099;28;20243;-58
2021/08/14 00:48:05;;;;;;;8.82;4.80;;;;;;;;;;2068613;28;20158;-54
2021/08/14 00:49:06;;;;;;;9.15;4.95;;;;;;;;;;2069888;28;20263;-55
2021/08/14 00:50:07;;;;;;;8.35;4.63;;;;;;;;;;2073616;28;20243;-57
2021/08/14 00:51:08;;;;;;;6.80;4.35;;;;;;;;;;2075856;28;20255;-59
2021/08/14 00:52:08;;;;;;;7.50;4.47;;;;;;;;;;2076793;28;20172;-58
2021/08/14 00:53:08;;;;;;;10.77;4.88;;;;;;;;;;2075453;28;20181;-59
2021/08/14 00:54:09;;;;;;;7.70;5.03;;;;;;;;;;2074585;28;20235;-49
2021/08/14 00:55:09;;;;;;;13.15;5.30;;;;;;;;;;2073611;28;20240;-50
2021/08/14 00:56:10;;;;;;;8.85;5.40;;;;;;;;;;2074322;28;20184;-50
2021/08/14 00:57:10;;;;;;;14.07;4.90;;;;;;;;;;2073978;28;20633;-51
2021/08/14 00:58:11;;;;;;;7.60;4.50;;;;;;;;;;2069008;28;20257;-52
2021/08/14 00:59:11;;;;;;;9.88;4.95;;;;;;;;;;2069029;28;20525;-52
2021/08/14 01:00:12;;;;;;;8.02;4.55;;;;;;;;;;2071223;28;20181;-51
2021/08/14 01:01:12;;;;;;;10.55;5.20;;;;;;;;;;2073243;28;20172;-51
2021/08/14 01:02:12;;;;;;;6.25;4.55;;;;;;;;;;2074237;28;20172;-51
2021/08/14 01:03:13;;;;;;;9.77;5.03;;;;;;;;;;2072547;28;20260;-55
2021/08/14 01:04:13;;;;;;;4.90;4.38;;;;;;;;;;2073257;28;20248;-55
2021/08/14 01:05:14;;;;;;;12.70;4.72;;;;;;;;;;2073003;28;20173;-55
2021/08/14 01:06:15;;;;;;;7.38;4.43;;;;;;;;;;2073575;28;20161;-53
2021/08/14 01:07:16;;;;;;;10.48;5.72;;;;;;;;;;2073898;28;20196;-57
2021/08/14 01:08:16;;;;;;;6.07;4.93;;;;;;;;;;2073983;28;20191;-56
2021/08/14 01:09:17;;;;;;;9.20;5.03;;;;;;;;;;2073363;28;20240;-51
2021/08/14 01:10:18;;;;;;;11.40;5.18;;;;;;;;;;2073655;28;20744;-52
2021/08/14 01:11:18;;;;;;;8.32;5.30;;;;;;;;;;2071799;28;20176;-56
2021/08/14 01:12:19;;;;;;;9.02;5.13;;;;;;;;;;2074101;28;20792;-53
2021/08/14 01:13:20;;;;;;;8.75;4.78;;;;;;;;;;2073935;28;20176;-59
2021/08/14 01:14:20;;;;;;;11.65;5.20;;;;;;;;;;2074291;28;20165;-57
2021/08/14 01:15:20;;;;;;;9.27;4.35;;;;;;;;;;2073288;28;20264;-51
2021/08/14 01:16:21;;;;;;;6.45;4.43;;;;;;;;;;2073879;28;20169;-51
2021/08/14 01:17:21;;;;;;;9.93;4.47;;;;;;;;;;2072733;28;20192;-50
2021/08/14 01:18:21;;;;;;;9.65;4.93;;;;;;;;;;2072544;28;20192;-52
2021/08/14 01:19:22;;;;;;;8.52;5.00;;;;;;;;;;2067261;28;20205;-52
2021/08/14 01:20:22;;;;;;;9.65;5.05;;;;;;;;;;2072523;28;20625;-54
2021/08/14 01:21:24;;;;;;;15.40;5.25;;;;;;;;;;2073259;28;20265;-52
2021/08/14 01:22:24;;;;;;;8.30;5.20;;;;;;;;;;2073898;28;20173;-54
2021/08/14 01:23:24;;;;;;;8.45;4.43;;;;;;;;;;2073279;28;20597;-52
2021/08/14 01:24:24;;;;;;;10.77;5.32;;;;;;;;;;2073107;28;20682;-51
2021/08/14 01:25:25;;;;;;;13.27;5.90;;;;;;;;;;2067731;28;20284;-50
2021/08/14 01:26:25;;;;;;;8.57;6.03;;;;;;;;;;2072585;28;20173;-51
2021/08/14 01:27:25;;;;;;;10.63;4.97;;;;;;;;;;2071297;28;20271;-50
2021/08/14 01:28:25;;;;;;;8.68;5.20;;;;;;;;;;2072611;28;20169;-51
2021/08/14 01:29:26;;;;;;;13.23;5.30;;;;;;;;;;2070668;28;20181;-49
2021/08/14 01:30:26;;;;;;;9.38;4.75;;;;;;;;;;2073299;28;20540;-49
2021/08/14 01:31:27;;;;;;;10.05;5.18;;;;;;;;;;2070213;28;20689;-50
2021/08/14 01:32:27;;;;;;;12.18;4.90;;;;;;;;;;2072308;28;20251;-57
2021/08/14 01:33:29;;;;;;;9.35;5.07;;;;;;;;;;2069587;28;20170;-50
2021/08/14 01:34:30;;;;;;;9.52;4.97;;;;;;;;;;2072765;28;20200;-52
2021/08/14 01:35:30;;;;;;;12.30;5.53;;;;;;;;;;2072754;28;20296;-51
2021/08/14 01:36:30;;;;;;;10.15;4.70;;;;;;;;;;2072652;28;20709;-55
2021/08/14 01:37:31;;;;;;;21.77;5.05;;;;;;;;;;2072978;28;20233;-54
2021/08/14 01:38:31;;;;;;;9.25;5.43;;;;;;;;;;2072534;28;20169;-56
2021/08/14 01:39:31;;;;;;;10.07;5.45;;;;;;;;;;2071309;28;20185;-51
2021/08/14 01:40:31;;;;;;;11.85;5.28;;;;;;;;;;2072528;28;20176;-54
2021/08/14 01:41:32;;;;;;;8.80;4.72;;;;;;;;;;2073054;28;20169;-50
2021/08/14 01:42:32;;;;;;;6.95;5.32;;;;;;;;;;2072765;28;20177;-51
2021/08/14 01:43:48;;;;;;;7.90;5.03;;;;;;;;;;2073188;28;20167;-49
2021/08/14 01:44:48;;;;;;;10.82;5.30;;;;;;;;;;2070871;28;20564;-50
2021/08/14 01:45:49;;;;;;;6.88;5.05;;;;;;;;;;2068151;28;20285;-50
2021/08/14 01:46:49;;;;;;;7.93;4.53;;;;;;;;;;2070933;28;20175;-58
2021/08/14 01:47:50;;;;;;;11.82;5.03;;;;;;;;;;2083423;23;20232;-56
2021/08/14 01:48:50;;;;;;;9.73;5.30;;;;;;;;;;2075753;28;20228;-54
2021/08/14 01:49:50;;;;;;;10.35;4.70;;;;;;;;;;2081268;28;20180;-55
2021/08/14 01:50:51;;;;;;;8.02;5.45;;;;;;;;;;2082412;28;20180;-56
2021/08/14 01:51:51;;;;;;;6.45;4.57;;;;;;;;;;2080003;28;20171;-53
2021/08/14 01:52:54;;;;;;;10.93;5.10;;;;;;;;;;2077573;28;20180;-51
2021/08/14 01:53:56;;;;;;;6.55;4.53;;;;;;;;;;2083456;28;20172;-50
2021/08/14 01:54:56;;;;;;;9.35;5.07;;;;;;;;;;2083470;28;20188;-54
2021/08/14 01:55:56;;;;;;;9.90;5.00;;;;;;;;;;2084210;28;20556;-52
2021/08/14 01:56:56;;;;;;;9.20;4.88;;;;;;;;;;2079519;28;20179;-55
2021/08/14 01:57:57;;;;;;;8.52;5.15;;;;;;;;;;2084720;28;20255;-52
2021/08/14 01:58:57;;;;;;;8.20;4.93;;;;;;;;;;2083375;28;20616;-52
2021/08/14 01:59:57;;;;;;;10.05;5.38;;;;;;;;;;2082364;28;20169;-52
2021/08/14 02:00:58;;;;;;;12.80;5.35;;;;;;;;;;2081889;28;20184;-53
2021/08/14 02:01:58;;;;;;;9.07;4.97;;;;;;;;;;2083639;28;20176;-50
2021/08/14 02:02:58;;;;;;;11.50;5.25;;;;;;;;;;2084319;28;20168;-52
2021/08/14 02:03:59;;;;;;;8.43;4.82;;;;;;;;;;2084505;28;20199;-53
2021/08/14 02:04:59;;;;;;;10.27;4.65;;;;;;;;;;2084484;28;20173;-51
2021/08/14 02:05:59;;;;;;;11.68;5.40;;;;;;;;;;2084633;28;20233;-52
2021/08/14 02:07:00;;;;;;;8.73;5.50;;;;;;;;;;2084762;28;20175;-49
2021/08/14 02:08:00;;;;;;;8.30;4.88;;;;;;;;;;2084805;28;20187;-49
2021/08/14 02:09:01;;;;;;;8.63;5.25;;;;;;;;;;2076793;28;20231;-49
2021/08/14 02:10:01;;;;;;;7.28;4.63;;;;;;;;;;2084592;28;20171;-53
2021/08/14 02:11:02;;;;;;;8.35;5.10;;;;;;;;;;2084571;28;20176;-51
2021/08/14 02:12:02;;;;;;;9.10;4.90;;;;;;;;;;2083644;28;20188;-50
2021/08/14 02:13:03;;;;;;;12.43;5.03;;;;;;;;;;2083916;28;20164;-50
2021/08/14 02:14:03;;;;;;;6.68;4.63;;;;;;;;;;2083235;28;20172;-53
2021/08/14 02:15:04;;;;;;;11.30;5.03;;;;;;;;;;2081465;28;20214;-53
2021/08/14 02:16:05;;;;;;;8.00;4.97;;;;;;;;;;2074166;28;20183;-48
2021/08/14 02:17:06;;;;;;;8.20;4.78;;;;;;;;;;2074101;28;20193;-50
2021/08/14 02:18:06;;;;;;;9.10;4.85;;;;;;;;;;2080489;28;20183;-50
2021/08/14 02:19:06;;;;;;;6.45;4.85;;;;;;;;;;2081379;28;20214;-52
2021/08/14 02:20:07;;;;;;;8.45;4.72;;;;;;;;;;2078603;28;20218;-50
2021/08/14 02:21:08;;;;;;;6.40;4.40;;;;;;;;;;2077422;28;20191;-49
2021/08/14 02:22:08;;;;;;;11.88;4.70;;;;;;;;;;2079342;28;20178;-51
2021/08/14 02:23:08;;;;;;;8.77;5.15;;;;;;;;;;2081553;28;20573;-53
2021/08/14 02:24:09;;;;;;;14.60;5.32;;;;;;;;;;2082003;28;20211;-50
2021/08/14 02:25:09;;;;;;;9.60;4.95;;;;;;;;;;2081919;28;20200;-50
2021/08/14 02:26:09;;;;;;;8.50;4.85;;;;;;;;;;2077004;28;20177;-50
2021/08/14 02:27:10;;;;;;;7.68;4.40;;;;;;;;;;2078987;28;20171;-52
2021/08/14 02:28:10;;;;;;;8.77;4.57;;;;;;;;;;2076632;28;20667;-52
2021/08/14 02:29:10;;;;;;;8.30;4.75;;;;;;;;;;2080518;28;20184;-50
2021/08/14 02:30:11;;;;;;;8.38;4.35;;;;;;;;;;2081591;28;20259;-53
2021/08/14 02:31:11;;;;;;;7.93;4.43;;;;;;;;;;2077190;28;20672;-50
2021/08/14 02:32:11;;;;;;;7.05;4.28;;;;;;;;;;2079424;28;20204;-50
2021/08/14 02:33:12;;;;;;;9.15;4.45;;;;;;;;;;2081822;28;20198;-52
2021/08/14 02:34:12;;;;;;;7.72;4.40;;;;;;;;;;2082479;28;20172;-51
2021/08/14 02:35:13;;;;;;;5.68;4.38;;;;;;;;;;2081988;28;20259;-54
2021/08/14 02:36:14;;;;;;;12.40;5.05;;;;;;;;;;2081738;28;20172;-50
2021/08/14 02:37:14;;;;;;;11.68;5.60;;;;;;;;;;2081750;28;20199;-49
2021/08/14 02:38:14;;;;;;;11.30;6.30;;;;;;;;;;2080248;28;20179;-53
2021/08/14 02:39:15;;;;;;;13.88;4.97;;;;;;;;;;2081250;28;20594;-52
2021/08/14 02:40:15;;;;;;;7.72;4.55;;;;;;;;;;2081442;28;20202;-50
2021/08/14 02:41:15;;;;;;;10.82;5.13;;;;;;;;;;2080386;28;20247;-51
2021/08/14 02:42:15;;;;;;;9.38;5.07;;;;;;;;;;2080257;28;20192;-51
2021/08/14 02:43:16;;;;;;;8.63;5.20;;;;;;;;;;2072873;28;20256;-50
2021/08/14 02:44:16;;;;;;;11.00;5.15;;;;;;;;;;2081340;28;20168;-49
2021/08/14 02:45:17;;;;;;;10.77;4.75;;;;;;;;;;2078630;28;20177;-50
2021/08/14 02:46:17;;;;;;;9.40;4.82;;;;;;;;;;2073040;28;20317;-53
2021/08/14 02:47:17;;;;;;;9.48;5.20;;;;;;;;;;2079116;28;20195;-51
2021/08/14 02:48:17;;;;;;;12.07;5.32;;;;;;;;;;2076436;28;20164;-53
2021/08/14 02:49:18;;;;;;;9.63;5.00;;;;;;;;;;2079776;28;20288;-53
2021/08/14 02:50:18;;;;;;;7.22;5.22;;;;;;;;;;2081272;28;20203;-50
2021/08/14 02:51:18;;;;;;;7.82;4.82;;;;;;;;;;2081491;28;20175;-51
2021/08/14 02:52:18;;;;;;;6.53;4.90;;;;;;;;;;2082536;28;20184;-53
2021/08/14 02:53:19;;;;;;;9.00;5.00;;;;;;;;;;2077909;28;20260;-53
2021/08/14 02:54:19;;;;;;;6.63;4.53;;;;;;;;;;2076261;28;20176;-55
2021/08/14 02:55:19;;;;;;;7.70;4.50;;;;;;;;;;2081636;28;20204;-51
2021/08/14 02:56:20;;;;;;;8.07;5.47;;;;;;;;;;2081586;28;20192;-55
2021/08/14 02:57:20;;;;;;;8.25;4.72;;;;;;;;;;2072005;28;20228;-55
2021/08/14 02:58:20;;;;;;;9.80;5.10;;;;;;;;;;2082818;28;20204;-52
2021/08/14 02:59:20;;;;;;;9.27;4.97;;;;;;;;;;2085372;28;20509;-53
2021/08/14 03:00:21;;;;;;;6.85;4.75;;;;;;;;;;2085649;28;20168;-52
2021/08/14 03:01:21;;;;;;;7.78;4.97;;;;;;;;;;2085491;28;20259;-50
2021/08/14 03:02:21;;;;;;;7.22;4.88;;;;;;;;;;2084170;28;20370;-52
2021/08/14 03:03:21;;;;;;;12.07;5.50;;;;;;;;;;2085894;28;20173;-51
2021/08/14 03:04:22;;;;;;;8.20;4.78;;;;;;;;;;2085465;28;20195;-50
2021/08/14 03:05:22;;;;;;;13.55;5.72;;;;;;;;;;2081526;28;20167;-50
2021/08/14 03:06:26;;;;;;;6.80;5.18;;;;;;;;;;2080989;28;20625;-54
2021/08/14 03:07:26;;;;;;;11.10;4.93;;;;;;;;;;2077733;28;20272;-53
2021/08/14 03:08:27;;;;;;;6.30;4.78;;;;;;;;;;2081084;28;20168;-52
2021/08/14 03:09:27;;;;;;;9.35;5.20;;;;;;;;;;2081642;28;20172;-53
2021/08/14 03:10:27;;;;;;;11.07;5.15;;;;;;;;;;2082177;28;20247;-54
2021/08/14 03:11:27;;;;;;;9.25;4.88;;;;;;;;;;2081391;28;20763;-53
2021/08/14 03:12:28;;;;;;;9.15;4.68;;;;;;;;;;2081339;28;20173;-55
2021/08/14 03:13:28;;;;;;;7.95;4.75;;;;;;;;;;2080920;28;20183;-49
2021/08/14 03:14:28;;;;;;;8.40;4.95;;;;;;;;;;2080494;28;20161;-51
2021/08/14 03:15:28;;;;;;;12.90;5.95;;;;;;;;;;2081621;28;20180;-51
2021/08/14 03:16:29;;;;;;;6.10;4.93;;;;;;;;;;2081787;28;20519;-53
2021/08/14 03:17:30;;;;;;;11.07;4.93;;;;;;;;;;2072200;28;20695;-50
2021/08/14 03:18:30;;;;;;;10.07;5.40;;;;;;;;;;2071839;28;20175;-50
2021/08/14 03:19:30;;;;;;;9.98;5.53;;;;;;;;;;2079105;28;20798;-51
2021/08/14 03:20:31;;;;;;;9.60;5.57;;;;;;;;;;2073116;28;20676;-52
2021/08/14 03:21:31;;;;;;;7.57;5.63;;;;;;;;;;2080175;28;20156;-53
2021/08/14 03:22:31;;;;;;;10.45;5.40;;;;;;;;;;2080968;28;20180;-52
2021/08/14 03:23:32;;;;;;;11.25;5.13;;;;;;;;;;2081581;28;20655;-52
2021/08/14 03:24:32;;;;;;;11.18;5.72;;;;;;;;;;2080956;28;20213;-52
2021/08/14 03:25:32;;;;;;;9.82;5.93;;;;;;;;;;2075018;28;20208;-50
2021/08/14 03:26:32;;;;;;;9.52;5.28;;;;;;;;;;2081380;28;20169;-50
2021/08/14 03:27:33;;;;;;;16.55;5.45;;;;;;;;;;2081296;28;20190;-51
2021/08/14 03:28:33;;;;;;;7.72;5.15;;;;;;;;;;2081377;28;20160;-52
2021/08/14 03:29:33;;;;;;;9.85;4.85;;;;;;;;;;2082172;28;20597;-51
2021/08/14 03:30:33;;;;;;;11.30;5.10;;;;;;;;;;2082447;28;20176;-54
2021/08/14 03:31:34;;;;;;;9.80;5.43;;;;;;;;;;2083112;28;20180;-56
2021/08/14 03:32:34;;;;;;;8.73;4.90;;;;;;;;;;2076947;28;20522;-55
2021/08/14 03:33:34;;;;;;;7.93;4.43;;;;;;;;;;2083336;28;20164;-56
2021/08/14 03:34:34;;;;;;;7.43;4.97;;;;;;;;;;2081948;28;20184;-57
2021/08/14 03:35:35;;;;;;;6.57;4.68;;;;;;;;;;2081788;28;20171;-51
2021/08/14 03:36:35;;;;;;;8.00;5.05;;;;;;;;;;2080974;28;20222;-51
2021/08/14 03:37:35;;;;;;;11.52;5.05;;;;;;;;;;2080395;28;20322;-50
2021/08/14 03:38:36;;;;;;;8.98;5.03;;;;;;;;;;2079600;28;20242;-51
2021/08/14 03:39:38;;;;;;;12.40;5.20;;;;;;;;;;2080588;28;20195;-52
2021/08/14 03:40:38;;;;;;;10.63;5.22;;;;;;;;;;2081289;28;20188;-56
2021/08/14 03:41:39;;;;;;;11.20;5.57;;;;;;;;;;2081247;28;20175;-52
2021/08/14 03:42:39;;;;;;;11.93;5.28;;;;;;;;;;2080573;28;20692;-50
2021/08/14 03:43:39;;;;;;;7.65;5.47;;;;;;;;;;2080574;28;20168;-52
2021/08/14 03:44:40;;;;;;;11.50;5.20;;;;;;;;;;2080717;28;20187;-52
2021/08/14 03:45:40;;;;;;;11.40;5.45;;;;;;;;;;2080589;28;20188;-49
2021/08/14 03:46:40;;;;;;;19.63;5.82;;;;;;;;;;2080165;28;20227;-51
2021/08/14 03:47:40;;;;;;;8.38;4.85;;;;;;;;;;2080250;28;20241;-50
2021/08/14 03:48:41;;;;;;;9.20;5.35;;;;;;;;;;2080190;28;20632;-53
2021/08/14 03:49:41;;;;;;;14.07;6.03;;;;;;;;;;2080119;28;20172;-54
2021/08/14 03:50:41;;;;;;;11.48;5.05;;;;;;;;;;2071868;28;20176;-52
2021/08/14 03:51:41;;;;;;;9.80;5.40;;;;;;;;;;2072860;28;20161;-52
2021/08/14 03:52:42;;;;;;;11.80;4.97;;;;;;;;;;2073847;28;20578;-53
2021/08/14 03:53:42;;;;;;;8.43;5.45;;;;;;;;;;2080488;28;20718;-51
2021/08/14 03:54:43;;;;;;;7.85;5.05;;;;;;;;;;2079899;28;20788;-51
2021/08/14 03:55:44;;;;;;;14.23;6.00;;;;;;;;;;2073555;28;20291;-55
2021/08/14 03:56:44;;;;;;;9.85;5.15;;;;;;;;;;2086395;28;20172;-51
2021/08/14 03:57:44;;;;;;;9.05;5.03;;;;;;;;;;2079638;28;20215;-50
2021/08/14 03:58:44;;;;;;;12.57;5.18;;;;;;;;;;2074006;28;20180;-50
2021/08/14 03:59:45;;;;;;;11.23;5.80;;;;;;;;;;2080380;28;20183;-52
2021/08/14 04:00:45;;;;;;;9.27;5.50;;;;;;;;;;2081036;28;20223;-54
2021/08/14 04:01:45;;;;;;;10.93;5.60;;;;;;;;;;2081203;28;20675;-52
2021/08/14 04:02:45;;;;;;;9.60;5.40;;;;;;;;;;2081229;28;20644;-55
2021/08/14 04:03:46;;;;;;;12.88;5.60;;;;;;;;;;2080981;28;20259;-56
2021/08/14 04:04:46;;;;;;;8.85;5.15;;;;;;;;;;2075195;28;20181;-56
2021/08/14 04:05:46;;;;;;;9.05;5.07;;;;;;;;;;2079388;28;20208;-56
2021/08/14 04:06:46;;;;;;;7.90;4.90;;;;;;;;;;2081138;28;20194;-51
2021/08/14 04:07:47;;;;;;;8.50;5.25;;;;;;;;;;2080982;28;20184;-54
2021/08/14 04:08:47;;;;;;;9.55;4.47;;;;;;;;;;2081931;28;20199;-52
2021/08/14 04:09:47;;;;;;;9.07;4.68;;;;;;;;;;2081091;28;20173;-50
2021/08/14 04:10:47;;;;;;;12.05;5.20;;;;;;;;;;2081470;28;20183;-51
2021/08/14 04:11:48;;;;;;;10.10;5.65;;;;;;;;;;2082613;28;20165;-50
2021/08/14 04:12:50;;;;;;;14.50;5.68;;;;;;;;;;2082585;28;20628;-53
2021/08/14 04:13:50;;;;;;;9.98;5.30;;;;;;;;;;2082114;28;20175;-51
2021/08/14 04:14:50;;;;;;;9.45;5.38;;;;;;;;;;2080316;28;20270;-54
2021/08/14 04:15:51;;;;;;;12.35;5.75;;;;;;;;;;2081178;28;20193;-51
2021/08/14 04:16:51;;;;;;;10.73;5.68;;;;;;;;;;2079126;28;20180;-52
2021/08/14 04:17:51;;;;;;;9.25;5.13;;;;;;;;;;2081219;28;20184;-50
2021/08/14 04:18:51;;;;;;;15.30;5.65;;;;;;;;;;2081170;28;20184;-51
2021/08/14 04:19:51;;;;;;;10.95;5.00;;;;;;;;;;2088674;28;20175;-50
2021/08/14 04:20:52;;;;;;;11.45;5.82;;;;;;;;;;2082007;28;20188;-49
2021/08/14 04:21:52;;;;;;;12.90;4.97;;;;;;;;;;2082585;28;20180;-51
2021/08/14 04:22:52;;;;;;;9.32;5.00;;;;;;;;;;2077886;28;20172;-50
2021/08/14 04:23:52;;;;;;;6.78;5.20;;;;;;;;;;2082175;28;20177;-49
2021/08/14 04:24:53;;;;;;;12.70;5.30;;;;;;;;;;2081141;28;20175;-49
2021/08/14 04:25:53;;;;;;;9.85;5.40;;;;;;;;;;2081512;28;20195;-55
2021/08/14 04:26:53;;;;;;;12.98;5.57;;;;;;;;;;2076918;28;20275;-52
2021/08/14 04:27:54;;;;;;;15.73;5.45;;;;;;;;;;2080726;28;20192;-59
2021/08/14 04:28:54;;;;;;;9.40;5.28;;;;;;;;;;2084581;28;20172;-54
2021/08/14 04:29:54;;;;;;;10.27;5.88;;;;;;;;;;2084730;28;20219;-54
2021/08/14 04:30:54;;;;;;;10.93;5.25;;;;;;;;;;2078215;28;20183;-54
2021/08/14 04:31:55;;;;;;;7.15;5.00;;;;;;;;;;2078930;28;20203;-50
2021/08/14 04:32:55;;;;;;;7.93;4.97;;;;;;;;;;2081907;28;20163;-53
2021/08/14 04:33:55;;;;;;;10.20;5.28;;;;;;;;;;2086267;28;20163;-54
2021/08/14 04:34:55;;;;;;;11.77;5.15;;;;;;;;;;2076668;28;20226;-54
2021/08/14 04:35:55;;;;;;;14.57;5.25;;;;;;;;;;2081444;28;20708;-55
2021/08/14 04:36:56;;;;;;;7.60;5.10;;;;;;;;;;2081099;28;20184;-55
2021/08/14 04:37:56;;;;;;;18.02;6.05;;;;;;;;;;2081093;28;20527;-54
2021/08/14 04:38:56;;;;;;;9.90;5.78;;;;;;;;;;2082508;28;20259;-53
2021/08/14 04:39:56;;;;;;;8.50;5.60;;;;;;;;;;2082200;28;20191;-52
2021/08/14 04:40:56;;;;;;;11.23;5.05;;;;;;;;;;2082344;28;20192;-50
2021/08/14 04:41:57;;;;;;;9.25;5.15;;;;;;;;;;2078300;28;20184;-52
2021/08/14 04:42:57;;;;;;;10.38;5.47;;;;;;;;;;2077396;28;20176;-50
2021/08/14 04:43:57;;;;;;;10.57;5.05;;;;;;;;;;2081723;28;20568;-52
2021/08/14 04:44:58;;;;;;;10.57;5.65;;;;;;;;;;2082440;28;20196;-50
2021/08/14 04:45:58;;;;;;;9.40;5.13;;;;;;;;;;2081077;28;20566;-53
2021/08/14 04:47:02;;;;;;;15.52;6.30;;;;;;;;;;2081010;28;20645;-56
2021/08/14 04:48:03;;;;;;;12.20;5.95;;;;;;;;;;2079619;28;20230;-52
2021/08/14 04:49:03;;;;;;;8.15;5.00;;;;;;;;;;2078061;28;20586;-51
2021/08/14 04:50:04;;;;;;;11.20;5.78;;;;;;;;;;2081684;28;20176;-53
2021/08/14 04:51:04;;;;;;;9.30;6.13;;;;;;;;;;2082405;28;20659;-54
2021/08/14 04:52:04;;;;;;;13.15;5.63;;;;;;;;;;2083969;28;20175;-52
2021/08/14 04:53:05;;;;;;;10.00;5.18;;;;;;;;;;2089837;28;20210;-56
2021/08/14 04:54:05;;;;;;;10.10;5.57;;;;;;;;;;2078490;28;20176;-52
2021/08/14 04:55:05;;;;;;;10.20;6.00;;;;;;;;;;2081358;28;20664;-53
2021/08/14 04:56:06;;;;;;;7.88;5.25;;;;;;;;;;2078304;28;20184;-51
2021/08/14 04:57:06;;;;;;;8.77;5.57;;;;;;;;;;2080295;28;20172;-51
2021/08/14 04:58:06;;;;;;;10.93;6.78;;;;;;;;;;2076853;28;20255;-52
2021/08/14 04:59:06;;;;;;;10.80;5.40;;;;;;;;;;2077358;28;20253;-51
2021/08/14 05:00:07;;;;;;;8.98;5.35;;;;;;;;;;2075707;28;20184;-53
2021/08/14 05:01:07;;;;;;;11.75;5.25;;;;;;;;;;2078344;28;20179;-53
2021/08/14 05:02:07;;;;;;;11.38;5.53;;;;;;;;;;2081649;28;20656;-52
2021/08/14 05:03:08;;;;;;;9.25;5.00;;;;;;;;;;2070816;28;20555;-53
2021/08/14 05:04:08;;;;;;;8.63;4.82;;;;;;;;;;2078594;28;20207;-52
2021/08/14 05:05:08;;;;;;;11.60;5.05;;;;;;;;;;2080520;28;20279;-50
2021/08/14 05:06:09;;;;;;;10.88;5.13;;;;;;;;;;2081302;28;20168;-51
2021/08/14 05:07:09;;;;;;;8.52;5.40;;;;;;;;;;2081413;28;20527;-51
2021/08/14 05:08:09;;;;;;;8.20;4.80;;;;;;;;;;2082630;28;20206;-53
2021/08/14 05:09:10;;;;;;;9.15;5.40;;;;;;;;;;2078154;28;20177;-52
2021/08/14 05:10:14;;;;;;;7.13;4.85;;;;;;;;;;2079409;28;20164;-53
2021/08/14 05:11:14;;;;;;;11.35;5.53;;;;;;;;;;2081558;28;20255;-52
2021/08/14 05:12:15;;;;;;;11.23;5.25;;;;;;;;;;2082103;28;20262;-52
2021/08/14 05:13:15;;;;;;;10.38;5.00;;;;;;;;;;2081381;28;20590;-54
2021/08/14 05:14:15;;;;;;;8.65;5.57;;;;;;;;;;2082132;28;20175;-53
2021/08/14 05:15:15;;;;;;;10.20;5.20;;;;;;;;;;2081818;28;20176;-50
2021/08/14 05:16:15;;;;;;;11.23;5.47;;;;;;;;;;2080918;28;20259;-52
2021/08/14 05:17:16;;;;;;;11.35;6.30;;;;;;;;;;2076556;28;20204;-50
2021/08/14 05:18:16;;;;;;;9.52;5.35;;;;;;;;;;2086608;28;20163;-52
2021/08/14 05:19:17;;;;;;;9.90;6.30;;;;;;;;;;2080884;28;20192;-52
2021/08/14 05:20:17;;;;;;;9.63;6.03;;;;;;;;;;2081079;28;20188;-52
2021/08/14 05:21:17;;;;;;;7.25;5.20;;;;;;;;;;2080818;28;20740;-50
2021/08/14 05:22:17;;;;;;;17.05;5.40;;;;;;;;;;2081412;28;20172;-51
2021/08/14 05:23:18;;;;;;;10.23;5.13;;;;;;;;;;2080332;28;20864;-49
2021/08/14 05:24:18;;;;;;;7.85;5.13;;;;;;;;;;2081444;28;20517;-50
2021/08/14 05:25:18;;;;;;;7.70;4.82;;;;;;;;;;2081435;28;20195;-51
2021/08/14 05:26:18;;;;;;;10.13;5.20;;;;;;;;;;2080469;28;20191;-52
2021/08/14 05:27:19;;;;;;;8.48;4.97;;;;;;;;;;2080897;28;20202;-53
2021/08/14 05:28:21;;;;;;;8.30;5.03;;;;;;;;;;2080726;28;20303;-52
2021/08/14 05:29:21;;;;;;;11.18;5.82;;;;;;;;;;2081309;28;20196;-50
2021/08/14 05:30:21;;;;;;;9.35;5.47;;;;;;;;;;2081190;28;20161;-50
2021/08/14 05:31:22;;;;;;;8.80;5.22;;;;;;;;;;2081526;28;20225;-50
2021/08/14 05:32:22;;;;;;;8.48;5.53;;;;;;;;;;2081300;28;20624;-50
2021/08/14 05:33:22;;;;;;;7.43;5.13;;;;;;;;;;2082101;28;20569;-51
2021/08/14 05:34:23;;;;;;;12.10;5.57;;;;;;;;;;2080168;28;20172;-52
2021/08/14 05:35:23;;;;;;;11.02;5.57;;;;;;;;;;2073063;28;20185;-50
2021/08/14 05:36:23;;;;;;;10.65;6.75;;;;;;;;;;2081545;28;20199;-57
2021/08/14 05:37:23;;;;;;;12.43;5.00;;;;;;;;;;2080667;28;20686;-55
2021/08/14 05:38:24;;;;;;;12.68;6.30;;;;;;;;;;2080651;28;20176;-54
2021/08/14 05:39:24;;;;;;;10.80;5.72;;;;;;;;;;2080670;28;20719;-53
2021/08/14 05:40:24;;;;;;;11.20;4.78;;;;;;;;;;2079640;28;20691;-53
2021/08/14 05:41:24;;;;;;;7.05;5.82;;;;;;;;;;2081313;28;20168;-54
2021/08/14 05:42:25;;;;;;;9.02;5.72;;;;;;;;;;2082007;28;20172;-52
2021/08/14 05:43:25;;;;;;;8.88;5.90;;;;;;;;;;2081663;28;20614;-53
2021/08/14 05:44:25;;;;;;;11.20;6.70;;;;;;;;;;2080728;28;20251;-52
2021/08/14 05:45:25;;;;;;;5.85;5.22;;;;;;;;;;2081143;28;20168;-52
2021/08/14 05:46:26;;;;;;;9.70;5.47;;;;;;;;;;2081287;28;20164;-56
2021/08/14 05:47:26;;;;;;;9.82;5.47;;;;;;;;;;2080918;28;20222;-54
2021/08/14 05:48:26;;;;;;;9.45;5.55;;;;;;;;;;2080607;28;20175;-55
2021/08/14 05:49:26;;;;;;;9.38;5.72;;;;;;;;;;2080640;28;20609;-53
2021/08/14 05:50:27;;;;;;;10.73;5.55;;;;;;;;;;2076019;28;20180;-52
2021/08/14 05:51:27;;;;;;;11.27;6.18;;;;;;;;;;2079911;28;20624;-51
2021/08/14 05:52:27;;;;;;;13.30;6.03;;;;;;;;;;2081141;28;20257;-54
2021/08/14 05:53:28;;;;;;;10.65;5.35;;;;;;;;;;2080360;28;20221;-51
2021/08/14 05:54:28;;;;;;;9.70;5.70;;;;;;;;;;2081462;28;20174;-56
2021/08/14 05:55:29;;;;;;;7.82;5.18;;;;;;;;;;2080833;28;20179;-54
2021/08/14 05:56:29;;;;;;;7.95;4.97;;;;;;;;;;2081732;28;20173;-55
2021/08/14 05:57:29;;;;;;;12.70;5.63;;;;;;;;;;2077502;28;20188;-53
2021/08/14 05:58:29;;;;;;;9.48;5.90;;;;;;;;;;2080723;28;20188;-49
2021/08/14 05:59:30;;;;;;;7.57;4.93;;;;;;;;;;2081343;28;20206;-55
2021/08/14 06:00:30;;;;;;;10.77;5.75;;;;;;;;;;2076686;28;20177;-54